sensor_id;sensor_type;location;lat;lon;timestamp;P1;durP1;ratioP1;P2;durP2;ratioP2
57778;SDS011;43608;49.486;9.640;2024-01-15T00:00:10;33.33;;;15.77;;
57778;SDS011;43608;49.486;9.640;2024-01-15T00:00:42;38.40;;;16.90;;
57778;SDS011;43608;49.486;9.640;2024-01-15T00:01:12;36.22;;;16.50;;
57778;SDS011;43608;49.486;9.640;2024-01-15T00:01:43;38.58;;;17.45;;
57778;SDS011;43608;49.486;9.640;2024-01-15T00:02:16;40.22;;;16.60;;
57778;SDS011;43608;49.486;9.640;2024-01-15T00:02:47;39.08;;;16.52;;
57778;SDS011;43608;49.486;9.640;2024-01-15T00:03:17;36.10;;;16.45;;
57778;SDS011;43608;49.486;9.640;2024-01-15T00:03:48;39.67;;;17.15;;
57778;SDS011;43608;49.486;9.640;2024-01-15T00:04:18;36.97;;;17.15;;
57778;SDS011;43608;49.486;9.640;2024-01-15T00:04:48;34.05;;;16.85;;
57778;SDS011;43608;49.486;9.640;2024-01-15T00:05:19;34.78;;;15.93;;
57778;SDS011;43608;49.486;9.640;2024-01-15T00:05:49;34.60;;;15.20;;
57778;SDS011;43608;49.486;9.640;2024-01-15T00:06:19;38.60;;;16.83;;
57778;SDS011;43608;49.486;9.640;2024-01-15T00:06:50;34.45;;;15.45;;
57778;SDS011;43608;49.486;9.640;2024-01-15T00:07:20;37.30;;;16.23;;
57778;SDS011;43608;49.486;9.640;2024-01-15T00:07:51;34.35;;;15.52;;
57778;SDS011;43608;49.486;9.640;2024-01-15T00:08:21;36.80;;;15.70;;
57778;SDS011;43608;49.486;9.640;2024-01-15T00:08:51;35.47;;;16.23;;
57778;SDS011;43608;49.486;9.640;2024-01-15T00:09:22;36.28;;;16.00;;
57778;SDS011;43608;49.486;9.640;2024-01-15T00:09:52;36.65;;;16.35;;
57778;SDS011;43608;49.486;9.640;2024-01-15T00:10:23;36.88;;;15.77;;
57778;SDS011;43608;49.486;9.640;2024-01-15T00:10:53;35.45;;;16.08;;
57778;SDS011;43608;49.486;9.640;2024-01-15T00:11:24;37.22;;;16.02;;
57778;SDS011;43608;49.486;9.640;2024-01-15T00:11:54;34.10;;;15.55;;
57778;SDS011;43608;49.486;9.640;2024-01-15T00:12:24;37.30;;;16.88;;
57778;SDS011;43608;49.486;9.640;2024-01-15T00:12:55;40.13;;;16.75;;
57778;SDS011;43608;49.486;9.640;2024-01-15T00:13:25;38.22;;;17.27;;
57778;SDS011;43608;49.486;9.640;2024-01-15T00:13:55;38.22;;;16.98;;
57778;SDS011;43608;49.486;9.640;2024-01-15T00:14:26;39.45;;;16.58;;
57778;SDS011;43608;49.486;9.640;2024-01-15T00:14:56;38.75;;;17.02;;
57778;SDS011;43608;49.486;9.640;2024-01-15T00:15:27;36.38;;;15.45;;
57778;SDS011;43608;49.486;9.640;2024-01-15T00:15:58;37.45;;;16.55;;
57778;SDS011;43608;49.486;9.640;2024-01-15T00:16:28;34.75;;;16.23;;
57778;SDS011;43608;49.486;9.640;2024-01-15T00:16:59;36.78;;;16.02;;
57778;SDS011;43608;49.486;9.640;2024-01-15T00:17:29;32.30;;;15.18;;
57778;SDS011;43608;49.486;9.640;2024-01-15T00:18:00;35.40;;;15.85;;
57778;SDS011;43608;49.486;9.640;2024-01-15T00:18:30;34.22;;;15.82;;
57778;SDS011;43608;49.486;9.640;2024-01-15T00:19:01;38.55;;;16.25;;
57778;SDS011;43608;49.486;9.640;2024-01-15T00:19:31;35.78;;;15.90;;
57778;SDS011;43608;49.486;9.640;2024-01-15T00:20:02;38.22;;;17.02;;
57778;SDS011;43608;49.486;9.640;2024-01-15T00:20:33;36.08;;;16.58;;
57778;SDS011;43608;49.486;9.640;2024-01-15T00:21:04;39.85;;;17.58;;
57778;SDS011;43608;49.486;9.640;2024-01-15T00:21:34;35.53;;;16.08;;
57778;SDS011;43608;49.486;9.640;2024-01-15T00:22:05;35.20;;;16.00;;
57778;SDS011;43608;49.486;9.640;2024-01-15T00:22:35;36.38;;;16.17;;
57778;SDS011;43608;49.486;9.640;2024-01-15T00:23:05;33.70;;;15.23;;
57778;SDS011;43608;49.486;9.640;2024-01-15T00:23:36;36.88;;;16.55;;
57778;SDS011;43608;49.486;9.640;2024-01-15T00:24:06;38.15;;;16.40;;
57778;SDS011;43608;49.486;9.640;2024-01-15T00:24:37;34.17;;;15.98;;
57778;SDS011;43608;49.486;9.640;2024-01-15T00:25:07;37.83;;;16.20;;
57778;SDS011;43608;49.486;9.640;2024-01-15T00:25:38;35.45;;;16.70;;
57778;SDS011;43608;49.486;9.640;2024-01-15T00:26:08;35.38;;;16.52;;
57778;SDS011;43608;49.486;9.640;2024-01-15T00:26:39;39.15;;;16.40;;
57778;SDS011;43608;49.486;9.640;2024-01-15T00:27:09;35.10;;;15.95;;
57778;SDS011;43608;49.486;9.640;2024-01-15T00:27:40;35.33;;;16.15;;
57778;SDS011;43608;49.486;9.640;2024-01-15T00:28:10;34.22;;;15.85;;
57778;SDS011;43608;49.486;9.640;2024-01-15T00:28:40;39.03;;;17.13;;
57778;SDS011;43608;49.486;9.640;2024-01-15T00:29:11;36.70;;;15.65;;
57778;SDS011;43608;49.486;9.640;2024-01-15T00:29:41;35.58;;;15.80;;
57778;SDS011;43608;49.486;9.640;2024-01-15T00:30:12;35.05;;;15.48;;
57778;SDS011;43608;49.486;9.640;2024-01-15T00:30:42;35.15;;;16.15;;
57778;SDS011;43608;49.486;9.640;2024-01-15T00:31:15;38.30;;;17.00;;
57778;SDS011;43608;49.486;9.640;2024-01-15T00:31:46;35.05;;;16.02;;
57778;SDS011;43608;49.486;9.640;2024-01-15T00:32:17;35.92;;;15.85;;
57778;SDS011;43608;49.486;9.640;2024-01-15T00:32:47;28.90;;;14.75;;
57778;SDS011;43608;49.486;9.640;2024-01-15T00:33:17;34.38;;;14.75;;
57778;SDS011;43608;49.486;9.640;2024-01-15T00:33:48;32.08;;;15.10;;
57778;SDS011;43608;49.486;9.640;2024-01-15T00:34:18;34.47;;;15.30;;
57778;SDS011;43608;49.486;9.640;2024-01-15T00:34:48;33.65;;;15.10;;
57778;SDS011;43608;49.486;9.640;2024-01-15T00:35:20;36.30;;;16.13;;
57778;SDS011;43608;49.486;9.640;2024-01-15T00:35:50;32.60;;;14.73;;
57778;SDS011;43608;49.486;9.640;2024-01-15T00:36:20;34.78;;;15.32;;
57778;SDS011;43608;49.486;9.640;2024-01-15T00:36:51;34.25;;;14.98;;
57778;SDS011;43608;49.486;9.640;2024-01-15T00:37:21;32.65;;;14.65;;
57778;SDS011;43608;49.486;9.640;2024-01-15T00:37:51;30.70;;;14.75;;
57778;SDS011;43608;49.486;9.640;2024-01-15T00:38:22;32.13;;;14.82;;
57778;SDS011;43608;49.486;9.640;2024-01-15T00:38:53;33.38;;;15.20;;
57778;SDS011;43608;49.486;9.640;2024-01-15T00:39:23;36.22;;;16.40;;
57778;SDS011;43608;49.486;9.640;2024-01-15T00:39:54;34.10;;;15.55;;
57778;SDS011;43608;49.486;9.640;2024-01-15T00:40:24;33.42;;;14.93;;
57778;SDS011;43608;49.486;9.640;2024-01-15T00:40:55;32.20;;;15.00;;
57778;SDS011;43608;49.486;9.640;2024-01-15T00:41:26;31.83;;;14.48;;
57778;SDS011;43608;49.486;9.640;2024-01-15T00:41:57;32.20;;;15.65;;
57778;SDS011;43608;49.486;9.640;2024-01-15T00:42:28;32.17;;;15.15;;
57778;SDS011;43608;49.486;9.640;2024-01-15T00:42:58;29.45;;;13.65;;
57778;SDS011;43608;49.486;9.640;2024-01-15T00:43:28;31.88;;;14.95;;
57778;SDS011;43608;49.486;9.640;2024-01-15T00:43:59;33.80;;;15.07;;
57778;SDS011;43608;49.486;9.640;2024-01-15T00:44:29;32.42;;;15.00;;
57778;SDS011;43608;49.486;9.640;2024-01-15T00:44:59;32.47;;;14.15;;
57778;SDS011;43608;49.486;9.640;2024-01-15T00:45:30;30.70;;;14.13;;
57778;SDS011;43608;49.486;9.640;2024-01-15T00:46:04;32.15;;;14.32;;
57778;SDS011;43608;49.486;9.640;2024-01-15T00:46:42;30.00;;;13.80;;
57778;SDS011;43608;49.486;9.640;2024-01-15T00:47:13;34.97;;;14.93;;
57778;SDS011;43608;49.486;9.640;2024-01-15T00:47:44;34.60;;;15.20;;
57778;SDS011;43608;49.486;9.640;2024-01-15T00:48:14;32.03;;;14.27;;
57778;SDS011;43608;49.486;9.640;2024-01-15T00:48:44;35.10;;;15.15;;
57778;SDS011;43608;49.486;9.640;2024-01-15T00:49:15;34.40;;;15.52;;
57778;SDS011;43608;49.486;9.640;2024-01-15T00:49:46;30.92;;;14.35;;
57778;SDS011;43608;49.486;9.640;2024-01-15T00:50:16;31.08;;;14.52;;
57778;SDS011;43608;49.486;9.640;2024-01-15T00:50:47;31.92;;;14.18;;
57778;SDS011;43608;49.486;9.640;2024-01-15T00:51:17;30.92;;;14.85;;
57778;SDS011;43608;49.486;9.640;2024-01-15T00:51:47;34.08;;;14.50;;
57778;SDS011;43608;49.486;9.640;2024-01-15T00:52:18;32.20;;;14.60;;
57778;SDS011;43608;49.486;9.640;2024-01-15T00:52:48;32.00;;;13.95;;
57778;SDS011;43608;49.486;9.640;2024-01-15T00:53:18;34.45;;;15.35;;
57778;SDS011;43608;49.486;9.640;2024-01-15T00:53:50;29.17;;;13.88;;
57778;SDS011;43608;49.486;9.640;2024-01-15T00:54:20;32.40;;;13.98;;
57778;SDS011;43608;49.486;9.640;2024-01-15T00:54:50;32.08;;;14.45;;
57778;SDS011;43608;49.486;9.640;2024-01-15T00:55:21;33.33;;;15.00;;
57778;SDS011;43608;49.486;9.640;2024-01-15T00:55:51;31.88;;;14.50;;
57778;SDS011;43608;49.486;9.640;2024-01-15T00:56:21;33.50;;;15.23;;
57778;SDS011;43608;49.486;9.640;2024-01-15T00:56:52;30.52;;;14.23;;
57778;SDS011;43608;49.486;9.640;2024-01-15T00:57:22;33.70;;;15.10;;
57778;SDS011;43608;49.486;9.640;2024-01-15T00:57:52;31.70;;;14.93;;
57778;SDS011;43608;49.486;9.640;2024-01-15T00:58:23;29.85;;;14.10;;
57778;SDS011;43608;49.486;9.640;2024-01-15T00:58:53;33.70;;;15.07;;
57778;SDS011;43608;49.486;9.640;2024-01-15T00:59:24;33.20;;;14.88;;
57778;SDS011;43608;49.486;9.640;2024-01-15T00:59:54;31.38;;;13.68;;
57778;SDS011;43608;49.486;9.640;2024-01-15T01:00:24;30.35;;;14.18;;
57778;SDS011;43608;49.486;9.640;2024-01-15T01:00:55;33.22;;;15.43;;
57778;SDS011;43608;49.486;9.640;2024-01-15T01:01:25;37.90;;;15.63;;
57778;SDS011;43608;49.486;9.640;2024-01-15T01:01:55;34.08;;;14.73;;
57778;SDS011;43608;49.486;9.640;2024-01-15T01:02:26;33.10;;;14.75;;
57778;SDS011;43608;49.486;9.640;2024-01-15T01:02:56;32.55;;;14.23;;
57778;SDS011;43608;49.486;9.640;2024-01-15T01:03:27;33.40;;;15.82;;
57778;SDS011;43608;49.486;9.640;2024-01-15T01:03:57;29.92;;;13.50;;
57778;SDS011;43608;49.486;9.640;2024-01-15T01:04:27;32.10;;;14.68;;
57778;SDS011;43608;49.486;9.640;2024-01-15T01:04:58;30.75;;;14.15;;
57778;SDS011;43608;49.486;9.640;2024-01-15T01:05:28;31.45;;;14.75;;
57778;SDS011;43608;49.486;9.640;2024-01-15T01:05:58;31.58;;;14.43;;
57778;SDS011;43608;49.486;9.640;2024-01-15T01:06:29;33.38;;;14.63;;
57778;SDS011;43608;49.486;9.640;2024-01-15T01:06:59;35.22;;;15.43;;
57778;SDS011;43608;49.486;9.640;2024-01-15T01:07:29;33.03;;;14.73;;
57778;SDS011;43608;49.486;9.640;2024-01-15T01:08:00;33.15;;;15.65;;
57778;SDS011;43608;49.486;9.640;2024-01-15T01:08:30;32.05;;;15.63;;
57778;SDS011;43608;49.486;9.640;2024-01-15T01:09:01;32.47;;;15.50;;
57778;SDS011;43608;49.486;9.640;2024-01-15T01:09:31;31.13;;;15.23;;
57778;SDS011;43608;49.486;9.640;2024-01-15T01:10:02;33.08;;;15.60;;
57778;SDS011;43608;49.486;9.640;2024-01-15T01:10:32;33.47;;;14.70;;
57778;SDS011;43608;49.486;9.640;2024-01-15T01:11:03;33.13;;;15.15;;
57778;SDS011;43608;49.486;9.640;2024-01-15T01:11:33;32.47;;;14.95;;
57778;SDS011;43608;49.486;9.640;2024-01-15T01:12:03;34.42;;;15.52;;
57778;SDS011;43608;49.486;9.640;2024-01-15T01:12:34;30.08;;;13.65;;
57778;SDS011;43608;49.486;9.640;2024-01-15T01:13:04;33.97;;;14.45;;
57778;SDS011;43608;49.486;9.640;2024-01-15T01:13:35;30.02;;;13.93;;
57778;SDS011;43608;49.486;9.640;2024-01-15T01:14:05;31.17;;;13.73;;
57778;SDS011;43608;49.486;9.640;2024-01-15T01:14:36;32.90;;;15.20;;
57778;SDS011;43608;49.486;9.640;2024-01-15T01:15:06;33.35;;;15.15;;
57778;SDS011;43608;49.486;9.640;2024-01-15T01:15:37;31.50;;;14.20;;
57778;SDS011;43608;49.486;9.640;2024-01-15T01:16:08;30.52;;;14.45;;
57778;SDS011;43608;49.486;9.640;2024-01-15T01:16:38;29.33;;;13.77;;
57778;SDS011;43608;49.486;9.640;2024-01-15T01:17:09;31.00;;;14.77;;
57778;SDS011;43608;49.486;9.640;2024-01-15T01:17:39;30.52;;;13.60;;
57778;SDS011;43608;49.486;9.640;2024-01-15T01:18:09;30.98;;;14.52;;
57778;SDS011;43608;49.486;9.640;2024-01-15T01:18:40;31.77;;;15.50;;
57778;SDS011;43608;49.486;9.640;2024-01-15T01:19:10;32.78;;;14.68;;
57778;SDS011;43608;49.486;9.640;2024-01-15T01:19:40;29.67;;;14.00;;
57778;SDS011;43608;49.486;9.640;2024-01-15T01:20:11;32.83;;;13.25;;
57778;SDS011;43608;49.486;9.640;2024-01-15T01:20:41;32.55;;;15.10;;
57778;SDS011;43608;49.486;9.640;2024-01-15T01:21:12;32.13;;;14.55;;
57778;SDS011;43608;49.486;9.640;2024-01-15T01:21:42;31.63;;;14.13;;
57778;SDS011;43608;49.486;9.640;2024-01-15T01:22:12;28.88;;;13.32;;
57778;SDS011;43608;49.486;9.640;2024-01-15T01:22:43;29.90;;;13.73;;
57778;SDS011;43608;49.486;9.640;2024-01-15T01:23:13;31.38;;;14.20;;
57778;SDS011;43608;49.486;9.640;2024-01-15T01:23:44;29.92;;;14.02;;
57778;SDS011;43608;49.486;9.640;2024-01-15T01:24:14;29.98;;;13.60;;
57778;SDS011;43608;49.486;9.640;2024-01-15T01:24:44;32.03;;;15.23;;
57778;SDS011;43608;49.486;9.640;2024-01-15T01:25:15;29.50;;;13.80;;
57778;SDS011;43608;49.486;9.640;2024-01-15T01:25:45;30.60;;;14.10;;
57778;SDS011;43608;49.486;9.640;2024-01-15T01:26:16;30.45;;;13.68;;
57778;SDS011;43608;49.486;9.640;2024-01-15T01:26:47;31.38;;;14.32;;
57778;SDS011;43608;49.486;9.640;2024-01-15T01:27:18;29.13;;;13.88;;
57778;SDS011;43608;49.486;9.640;2024-01-15T01:27:48;28.58;;;13.63;;
57778;SDS011;43608;49.486;9.640;2024-01-15T01:28:18;29.58;;;14.27;;
57778;SDS011;43608;49.486;9.640;2024-01-15T01:28:49;28.45;;;13.80;;
57778;SDS011;43608;49.486;9.640;2024-01-15T01:29:19;27.27;;;13.25;;
57778;SDS011;43608;49.486;9.640;2024-01-15T01:29:49;29.73;;;14.18;;
57778;SDS011;43608;49.486;9.640;2024-01-15T01:30:20;27.45;;;13.73;;
57778;SDS011;43608;49.486;9.640;2024-01-15T01:30:50;34.83;;;14.40;;
57778;SDS011;43608;49.486;9.640;2024-01-15T01:31:20;31.52;;;14.75;;
57778;SDS011;43608;49.486;9.640;2024-01-15T01:31:51;29.45;;;13.88;;
57778;SDS011;43608;49.486;9.640;2024-01-15T01:32:21;27.35;;;13.55;;
57778;SDS011;43608;49.486;9.640;2024-01-15T01:32:51;31.40;;;14.63;;
57778;SDS011;43608;49.486;9.640;2024-01-15T01:33:22;30.50;;;14.10;;
57778;SDS011;43608;49.486;9.640;2024-01-15T01:33:52;32.67;;;15.07;;
57778;SDS011;43608;49.486;9.640;2024-01-15T01:34:22;31.95;;;14.00;;
57778;SDS011;43608;49.486;9.640;2024-01-15T01:34:53;30.05;;;13.95;;
57778;SDS011;43608;49.486;9.640;2024-01-15T01:35:23;34.70;;;15.15;;
57778;SDS011;43608;49.486;9.640;2024-01-15T01:35:53;30.90;;;14.30;;
57778;SDS011;43608;49.486;9.640;2024-01-15T01:36:24;27.33;;;13.55;;
57778;SDS011;43608;49.486;9.640;2024-01-15T01:36:54;29.42;;;14.38;;
57778;SDS011;43608;49.486;9.640;2024-01-15T01:37:25;29.65;;;13.93;;
57778;SDS011;43608;49.486;9.640;2024-01-15T01:37:55;26.20;;;12.63;;
57778;SDS011;43608;49.486;9.640;2024-01-15T01:38:25;30.42;;;13.70;;
57778;SDS011;43608;49.486;9.640;2024-01-15T01:38:56;27.55;;;12.73;;
57778;SDS011;43608;49.486;9.640;2024-01-15T01:39:26;26.67;;;12.35;;
57778;SDS011;43608;49.486;9.640;2024-01-15T01:39:56;29.77;;;13.82;;
57778;SDS011;43608;49.486;9.640;2024-01-15T01:40:27;29.13;;;13.13;;
57778;SDS011;43608;49.486;9.640;2024-01-15T01:40:57;31.30;;;14.15;;
57778;SDS011;43608;49.486;9.640;2024-01-15T01:41:27;25.25;;;12.02;;
57778;SDS011;43608;49.486;9.640;2024-01-15T01:41:58;29.92;;;14.00;;
57778;SDS011;43608;49.486;9.640;2024-01-15T01:42:28;32.60;;;14.93;;
57778;SDS011;43608;49.486;9.640;2024-01-15T01:42:58;31.42;;;14.02;;
57778;SDS011;43608;49.486;9.640;2024-01-15T01:43:29;30.80;;;13.98;;
57778;SDS011;43608;49.486;9.640;2024-01-15T01:43:59;26.75;;;12.75;;
57778;SDS011;43608;49.486;9.640;2024-01-15T01:44:29;29.50;;;13.95;;
57778;SDS011;43608;49.486;9.640;2024-01-15T01:45:00;28.65;;;14.35;;
57778;SDS011;43608;49.486;9.640;2024-01-15T01:45:30;27.45;;;12.50;;
57778;SDS011;43608;49.486;9.640;2024-01-15T01:46:00;27.92;;;13.35;;
57778;SDS011;43608;49.486;9.640;2024-01-15T01:46:32;28.00;;;13.07;;
57778;SDS011;43608;49.486;9.640;2024-01-15T01:47:09;28.70;;;13.80;;
57778;SDS011;43608;49.486;9.640;2024-01-15T01:47:39;31.85;;;13.60;;
57778;SDS011;43608;49.486;9.640;2024-01-15T01:48:10;31.27;;;14.25;;
57778;SDS011;43608;49.486;9.640;2024-01-15T01:48:40;29.25;;;13.80;;
57778;SDS011;43608;49.486;9.640;2024-01-15T01:49:11;32.05;;;14.18;;
57778;SDS011;43608;49.486;9.640;2024-01-15T01:49:42;29.27;;;13.57;;
57778;SDS011;43608;49.486;9.640;2024-01-15T01:50:12;29.27;;;13.80;;
57778;SDS011;43608;49.486;9.640;2024-01-15T01:50:44;28.88;;;13.95;;
57778;SDS011;43608;49.486;9.640;2024-01-15T01:51:14;30.42;;;13.65;;
57778;SDS011;43608;49.486;9.640;2024-01-15T01:51:45;33.97;;;14.88;;
57778;SDS011;43608;49.486;9.640;2024-01-15T01:52:17;30.15;;;14.13;;
57778;SDS011;43608;49.486;9.640;2024-01-15T01:52:48;27.50;;;13.98;;
57778;SDS011;43608;49.486;9.640;2024-01-15T01:53:19;29.92;;;13.23;;
57778;SDS011;43608;49.486;9.640;2024-01-15T01:53:50;30.15;;;14.70;;
57778;SDS011;43608;49.486;9.640;2024-01-15T01:54:21;29.45;;;13.68;;
57778;SDS011;43608;49.486;9.640;2024-01-15T01:54:51;30.65;;;13.65;;
57778;SDS011;43608;49.486;9.640;2024-01-15T01:55:22;31.63;;;14.48;;
57778;SDS011;43608;49.486;9.640;2024-01-15T01:55:56;28.48;;;13.70;;
57778;SDS011;43608;49.486;9.640;2024-01-15T01:56:27;28.75;;;13.27;;
57778;SDS011;43608;49.486;9.640;2024-01-15T01:56:58;27.45;;;13.00;;
57778;SDS011;43608;49.486;9.640;2024-01-15T01:57:29;28.38;;;13.13;;
57778;SDS011;43608;49.486;9.640;2024-01-15T01:58:00;32.78;;;14.25;;
57778;SDS011;43608;49.486;9.640;2024-01-15T01:58:32;28.40;;;12.13;;
57778;SDS011;43608;49.486;9.640;2024-01-15T01:59:03;29.08;;;13.70;;
57778;SDS011;43608;49.486;9.640;2024-01-15T01:59:34;28.23;;;12.80;;
57778;SDS011;43608;49.486;9.640;2024-01-15T02:00:06;29.05;;;13.75;;
57778;SDS011;43608;49.486;9.640;2024-01-15T02:00:37;33.28;;;14.68;;
57778;SDS011;43608;49.486;9.640;2024-01-15T02:01:08;27.98;;;13.18;;
57778;SDS011;43608;49.486;9.640;2024-01-15T02:01:38;27.67;;;13.40;;
57778;SDS011;43608;49.486;9.640;2024-01-15T02:02:09;27.40;;;13.15;;
57778;SDS011;43608;49.486;9.640;2024-01-15T02:02:40;28.48;;;13.30;;
57778;SDS011;43608;49.486;9.640;2024-01-15T02:03:11;26.45;;;12.70;;
57778;SDS011;43608;49.486;9.640;2024-01-15T02:03:41;27.88;;;12.68;;
57778;SDS011;43608;49.486;9.640;2024-01-15T02:04:11;25.80;;;12.45;;
57778;SDS011;43608;49.486;9.640;2024-01-15T02:04:42;28.02;;;13.55;;
57778;SDS011;43608;49.486;9.640;2024-01-15T02:05:13;30.85;;;13.30;;
57778;SDS011;43608;49.486;9.640;2024-01-15T02:05:44;28.80;;;13.20;;
57778;SDS011;43608;49.486;9.640;2024-01-15T02:06:18;28.30;;;13.27;;
57778;SDS011;43608;49.486;9.640;2024-01-15T02:06:48;30.27;;;13.55;;
57778;SDS011;43608;49.486;9.640;2024-01-15T02:07:19;26.92;;;13.18;;
57778;SDS011;43608;49.486;9.640;2024-01-15T02:07:49;29.58;;;13.32;;
57778;SDS011;43608;49.486;9.640;2024-01-15T02:08:20;29.25;;;13.60;;
57778;SDS011;43608;49.486;9.640;2024-01-15T02:08:50;30.75;;;14.07;;
57778;SDS011;43608;49.486;9.640;2024-01-15T02:09:21;28.85;;;13.57;;
57778;SDS011;43608;49.486;9.640;2024-01-15T02:09:52;29.67;;;13.70;;
57778;SDS011;43608;49.486;9.640;2024-01-15T02:10:22;26.88;;;12.88;;
57778;SDS011;43608;49.486;9.640;2024-01-15T02:10:52;29.77;;;13.80;;
57778;SDS011;43608;49.486;9.640;2024-01-15T02:11:23;29.45;;;13.88;;
57778;SDS011;43608;49.486;9.640;2024-01-15T02:11:53;27.73;;;13.27;;
57778;SDS011;43608;49.486;9.640;2024-01-15T02:12:24;27.63;;;12.30;;
57778;SDS011;43608;49.486;9.640;2024-01-15T02:12:54;27.08;;;12.68;;
57778;SDS011;43608;49.486;9.640;2024-01-15T02:13:25;25.88;;;13.15;;
57778;SDS011;43608;49.486;9.640;2024-01-15T02:13:55;29.00;;;13.40;;
57778;SDS011;43608;49.486;9.640;2024-01-15T02:14:25;28.48;;;13.50;;
57778;SDS011;43608;49.486;9.640;2024-01-15T02:14:56;29.65;;;13.93;;
57778;SDS011;43608;49.486;9.640;2024-01-15T02:15:26;28.80;;;13.00;;
57778;SDS011;43608;49.486;9.640;2024-01-15T02:15:57;28.15;;;13.00;;
57778;SDS011;43608;49.486;9.640;2024-01-15T02:16:27;29.83;;;13.68;;
57778;SDS011;43608;49.486;9.640;2024-01-15T02:16:57;28.73;;;13.48;;
57778;SDS011;43608;49.486;9.640;2024-01-15T02:17:28;26.80;;;12.75;;
57778;SDS011;43608;49.486;9.640;2024-01-15T02:18:02;30.45;;;13.80;;
57778;SDS011;43608;49.486;9.640;2024-01-15T02:18:40;30.73;;;13.73;;
57778;SDS011;43608;49.486;9.640;2024-01-15T02:19:17;27.88;;;12.90;;
57778;SDS011;43608;49.486;9.640;2024-01-15T02:19:49;31.20;;;13.82;;
57778;SDS011;43608;49.486;9.640;2024-01-15T02:20:20;31.88;;;14.93;;
57778;SDS011;43608;49.486;9.640;2024-01-15T02:20:50;30.98;;;14.00;;
57778;SDS011;43608;49.486;9.640;2024-01-15T02:21:20;30.92;;;14.20;;
57778;SDS011;43608;49.486;9.640;2024-01-15T02:21:51;29.35;;;13.60;;
57778;SDS011;43608;49.486;9.640;2024-01-15T02:22:21;27.60;;;13.38;;
57778;SDS011;43608;49.486;9.640;2024-01-15T02:22:51;29.00;;;12.95;;
57778;SDS011;43608;49.486;9.640;2024-01-15T02:23:22;30.67;;;13.65;;
57778;SDS011;43608;49.486;9.640;2024-01-15T02:23:52;27.58;;;13.63;;
57778;SDS011;43608;49.486;9.640;2024-01-15T02:24:22;28.40;;;13.15;;
57778;SDS011;43608;49.486;9.640;2024-01-15T02:24:53;30.15;;;13.27;;
57778;SDS011;43608;49.486;9.640;2024-01-15T02:25:23;27.08;;;13.90;;
57778;SDS011;43608;49.486;9.640;2024-01-15T02:25:54;27.92;;;14.05;;
57778;SDS011;43608;49.486;9.640;2024-01-15T02:26:24;29.83;;;13.77;;
57778;SDS011;43608;49.486;9.640;2024-01-15T02:26:55;30.88;;;13.95;;
57778;SDS011;43608;49.486;9.640;2024-01-15T02:27:25;29.55;;;13.68;;
57778;SDS011;43608;49.486;9.640;2024-01-15T02:27:56;28.42;;;13.63;;
57778;SDS011;43608;49.486;9.640;2024-01-15T02:28:26;27.40;;;13.50;;
57778;SDS011;43608;49.486;9.640;2024-01-15T02:28:57;28.50;;;13.07;;
57778;SDS011;43608;49.486;9.640;2024-01-15T02:29:27;32.33;;;13.95;;
57778;SDS011;43608;49.486;9.640;2024-01-15T02:29:58;31.52;;;13.73;;
57778;SDS011;43608;49.486;9.640;2024-01-15T02:30:28;28.75;;;14.25;;
57778;SDS011;43608;49.486;9.640;2024-01-15T02:31:00;28.52;;;13.18;;
57778;SDS011;43608;49.486;9.640;2024-01-15T02:31:30;29.23;;;13.88;;
57778;SDS011;43608;49.486;9.640;2024-01-15T02:32:04;30.42;;;13.88;;
57778;SDS011;43608;49.486;9.640;2024-01-15T02:32:35;29.27;;;13.85;;
57778;SDS011;43608;49.486;9.640;2024-01-15T02:33:05;32.85;;;14.18;;
57778;SDS011;43608;49.486;9.640;2024-01-15T02:33:36;31.00;;;14.13;;
57778;SDS011;43608;49.486;9.640;2024-01-15T02:34:07;27.88;;;13.13;;
57778;SDS011;43608;49.486;9.640;2024-01-15T02:34:37;30.58;;;13.57;;
57778;SDS011;43608;49.486;9.640;2024-01-15T02:35:07;31.95;;;14.93;;
57778;SDS011;43608;49.486;9.640;2024-01-15T02:35:38;33.70;;;14.40;;
57778;SDS011;43608;49.486;9.640;2024-01-15T02:36:08;28.02;;;13.20;;
57778;SDS011;43608;49.486;9.640;2024-01-15T02:36:39;33.65;;;15.13;;
57778;SDS011;43608;49.486;9.640;2024-01-15T02:37:09;30.35;;;13.48;;
57778;SDS011;43608;49.486;9.640;2024-01-15T02:37:40;30.45;;;13.15;;
57778;SDS011;43608;49.486;9.640;2024-01-15T02:38:10;29.02;;;13.07;;
57778;SDS011;43608;49.486;9.640;2024-01-15T02:38:41;30.38;;;14.05;;
57778;SDS011;43608;49.486;9.640;2024-01-15T02:39:11;31.00;;;13.68;;
57778;SDS011;43608;49.486;9.640;2024-01-15T02:39:42;29.88;;;13.25;;
57778;SDS011;43608;49.486;9.640;2024-01-15T02:40:12;29.25;;;13.45;;
57778;SDS011;43608;49.486;9.640;2024-01-15T02:40:46;28.73;;;12.73;;
57778;SDS011;43608;49.486;9.640;2024-01-15T02:41:17;24.75;;;12.65;;
57778;SDS011;43608;49.486;9.640;2024-01-15T02:41:47;29.50;;;12.80;;
57778;SDS011;43608;49.486;9.640;2024-01-15T02:42:17;28.52;;;13.05;;
57778;SDS011;43608;49.486;9.640;2024-01-15T02:42:48;28.52;;;13.32;;
57778;SDS011;43608;49.486;9.640;2024-01-15T02:43:18;27.42;;;12.82;;
57778;SDS011;43608;49.486;9.640;2024-01-15T02:43:49;26.38;;;12.73;;
57778;SDS011;43608;49.486;9.640;2024-01-15T02:44:19;27.30;;;13.15;;
57778;SDS011;43608;49.486;9.640;2024-01-15T02:44:49;29.92;;;12.73;;
57778;SDS011;43608;49.486;9.640;2024-01-15T02:45:20;30.48;;;13.43;;
57778;SDS011;43608;49.486;9.640;2024-01-15T02:45:51;27.10;;;12.88;;
57778;SDS011;43608;49.486;9.640;2024-01-15T02:46:22;28.70;;;13.57;;
57778;SDS011;43608;49.486;9.640;2024-01-15T02:46:52;26.15;;;12.27;;
57778;SDS011;43608;49.486;9.640;2024-01-15T02:47:22;29.00;;;12.70;;
57778;SDS011;43608;49.486;9.640;2024-01-15T02:47:53;26.38;;;12.52;;
57778;SDS011;43608;49.486;9.640;2024-01-15T02:48:23;27.60;;;13.00;;
57778;SDS011;43608;49.486;9.640;2024-01-15T02:48:53;28.80;;;13.23;;
57778;SDS011;43608;49.486;9.640;2024-01-15T02:49:24;28.88;;;13.68;;
57778;SDS011;43608;49.486;9.640;2024-01-15T02:49:54;28.70;;;13.38;;
57778;SDS011;43608;49.486;9.640;2024-01-15T02:50:24;31.00;;;13.65;;
57778;SDS011;43608;49.486;9.640;2024-01-15T02:50:55;30.33;;;14.32;;
57778;SDS011;43608;49.486;9.640;2024-01-15T02:51:25;29.55;;;13.70;;
57778;SDS011;43608;49.486;9.640;2024-01-15T02:51:56;31.65;;;14.48;;
57778;SDS011;43608;49.486;9.640;2024-01-15T02:52:26;27.90;;;13.38;;
57778;SDS011;43608;49.486;9.640;2024-01-15T02:52:56;31.35;;;14.10;;
57778;SDS011;43608;49.486;9.640;2024-01-15T02:53:27;30.38;;;13.52;;
57778;SDS011;43608;49.486;9.640;2024-01-15T02:53:57;27.30;;;13.13;;
57778;SDS011;43608;49.486;9.640;2024-01-15T02:54:27;24.60;;;12.35;;
57778;SDS011;43608;49.486;9.640;2024-01-15T02:54:58;28.75;;;12.52;;
57778;SDS011;43608;49.486;9.640;2024-01-15T02:55:28;28.38;;;12.45;;
57778;SDS011;43608;49.486;9.640;2024-01-15T02:56:01;26.85;;;12.50;;
57778;SDS011;43608;49.486;9.640;2024-01-15T02:56:32;27.52;;;13.07;;
57778;SDS011;43608;49.486;9.640;2024-01-15T02:57:02;29.65;;;13.73;;
57778;SDS011;43608;49.486;9.640;2024-01-15T02:57:32;27.75;;;13.30;;
57778;SDS011;43608;49.486;9.640;2024-01-15T02:58:03;28.25;;;12.95;;
57778;SDS011;43608;49.486;9.640;2024-01-15T02:58:34;29.35;;;13.80;;
57778;SDS011;43608;49.486;9.640;2024-01-15T02:59:04;28.85;;;13.55;;